Tiempo atmosférico en la estación meteorológica de Cabo Vilan, A Coruña (50 m.)



Fecha
DESCASC
Temp. máxima en grados centígrados (hora)
DESCASC
Temp. mínima en grados centígrados (hora)
DESCASC
Temp. media en grados centígrados
DESCASC
Racha de viento máxima en m/sg (hora)
DESCASC
Velocidad máxima media en intervalos de 10 minutos(hora)
DESCASC
Precipitaciones diarias en mm
DESCASC
Precipitaciones de 00:00 a 06:00 en mm
DESCASC
Precipitaciones de 06:00 a 12:00 en mm
DESCASC
Precipitaciones de 12:00 a 18:00 en mm
DESCASC
Precipitaciones de 18:00 a 24:00 en mm
DESCASC
23-05-2018 18.6 (13:20) 11.8 (06:20) 15.2 8.61 (11:50) 7.5 (11:50) 0 0 0 0 0
22-05-2018 17.2 (15:40) 10.1 (07:10) 13.7 10.28 (16:40) 7.78 (16:20) 0 0 0 0 0
21-05-2018 17.9 (14:00) 10.9 (06:50) 14.4 10.83 (14:30) 8.06 (14:10) 0 0 0 0 0
20-05-2018 16.9 (16:00) 11.7 (00:00) 14.3 15 (23:10) 11.67 (18:00) 0 0 0 0 0
19-05-2018 20.6 (10:50) 13 (00:00) 16.8 13.61 (02:30) 8.89 (02:30) 0 0 0 0 0
18-05-2018 15 (15:10) 13 (00:00) 14 18.89 (13:50) 15.83 (05:30) 0 0 0 0 0
17-05-2018 14.5 (16:50) 11.9 (00:00) 13.2 22.22 (21:40) 17.5 (07:20) 0 0 0 0 0
16-05-2018 14.9 (13:30) 12.1 (00:00) 13.5 20.83 (15:20) 16.11 (11:00) 0 0 0 0 0
15-05-2018 14.7 (16:10) 11.9 (00:00) 13.3 19.44 (22:00) 15.83 (21:40) 0.6 0.3 0.3 0 0
14-05-2018 13.8 (17:00) 12.1 (00:00) 13 10.56 (10:10) 8.33 (12:30) 0.6 0.6 0 0 0
13-05-2018 15.9 (18:30) 9.4 (00:00) 12.6 9.17 (08:20) 6.94 (08:10) 2.2 0.2 0 0.1 1.9
12-05-2018 15.6 (18:00) 9 (00:00) 12.3 14.44 (04:20) 9.44 (05:30) 5.4 2.7 0.2 0 2.5
11-05-2018 15.3 (19:30) 10.6 (01:50) 13 20.83 (12:40) 10.56 (13:50) 1.3 0 0.4 0.9 0
10-05-2018 14.1 (13:50) 11 (00:00) 12.6 15.28 (16:40) 13.33 (16:30) 0 0 0 0 0
09-05-2018 16.4 (15:00) 11.4 (00:00) 13.9 13.06 (23:40) 11.11 (23:50) 1.1 0 0 0 1.1
08-05-2018 16.5 (15:30) 10.8 (00:00) 13.7 11.11 (01:40) 9.17 (23:30) 0 0 0 0 0
07-05-2018 15.2 (13:00) 12.1 (00:00) 13.7 12.22 (13:50) 10.28 (11:00) 0 0 0 0 0
06-05-2018 18.3 (12:10) 11.2 (00:00) 14.7 14.44 (00:10) 10.83 (00:10) 0 0 0 0 0
05-05-2018 14.7 (13:50) 10.4 (00:00) 12.5 20.83 (00:10) 17.22 (00:10) 0 0 0 0 0
04-05-2018 13.7 (14:40) 11 (00:00) 12.3 21.94 (23:10) 17.78 (23:30) 0 0 0 0 0
03-05-2018 13.4 (15:30) 10.1 (00:00) 11.8 18.61 (22:40) 15.56 (22:40) 0 0 0 0 0
02-05-2018 13.3 (19:10) 9.8 (00:00) 11.6 14.72 (03:50) 11.94 (21:10) 20.2 3.1 2.9 12.4 1.8
01-05-2018 14.9 (15:40) 6.5 (07:30) 10.7 15.28 (23:30) 11.39 (22:30) 1 0 0 0 1
30-04-2018 13.9 (15:50) 7.4 (00:00) 10.6 11.94 (14:40) 8.89 (13:10) 0.6 0.5 0.1 0 0
29-04-2018 11.9 (15:10) 7.6 (00:00) 9.7 12.22 (15:30) 9.17 (16:00) 10.1 0.6 4.7 3.3 1.5
28-04-2018 14.8 (14:40) 7.8 (00:00) 11.3 9.44 (17:00) 7.5 (17:10) 5.3 1.1 2.4 0 1.8

Gráficas

Temp. máximas Temp. mínimas Temp. medias Precipitaciones Rachas de viento máximas Velocidades máximas media en intervalos de 10 minutos

Datos horarios

Fecha y hora oficial Temperatura (ºC) Velocidad del viento (km/h) Dirección del viento Racha (km/h) Dirección de racha Precipitación (mm) Presión (hPa) Tendencia (hPa) Humedad (%)
2018-05-27 23:00:00 13.7 3 Sur 5 Sur 0 -- -- 82
2018-05-27 22:00:00 13.6 3 Sur 7 Sudoeste 0 -- -- 80
2018-05-27 21:00:00 13.7 6 Sudoeste 16 Oeste 0 -- -- 78
2018-05-27 20:00:00 14.5 9 Oeste 19 Oeste 0 -- -- 76
2018-05-27 19:00:00 14.3 15 Oeste 20 Oeste 0 -- -- 72
2018-05-27 18:00:00 16.6 11 Oeste 19 Oeste 0 -- -- 68
2018-05-27 17:00:00 17.4 13 Oeste 20 Oeste 0 -- -- 69
2018-05-27 16:00:00 17.3 14 Oeste 19 Oeste 0 -- -- 70
2018-05-27 15:00:00 16.9 13 Oeste 17 Sudoeste 0 -- -- 73
2018-05-27 14:00:00 15.3 12 Oeste 17 Oeste 0 -- -- 78
2018-05-27 13:00:00 14.9 11 Noroeste 17 Noroeste 0 -- -- 80
2018-05-27 12:00:00 14.7 6 Oeste 13 Oeste 0 -- -- 84
2018-05-27 11:00:00 14.1 5 Oeste 11 Noroeste 0 -- -- 84
2018-05-27 10:00:00 14.2 5 Noroeste 11 Noroeste 0 -- -- 86
2018-05-27 09:00:00 13.6 8 Noroeste 17 Noroeste 0 -- -- 86
2018-05-27 08:00:00 13 7 Noroeste 14 Noroeste 0 -- -- 86
2018-05-27 07:00:00 13 5 Noroeste 11 Noroeste 0 -- -- 86
2018-05-27 06:00:00 12.7 3 Norte 12 Norte 0 -- -- 86
2018-05-27 05:00:00 12.6 4 Norte 7 Norte 0 -- -- 86
2018-05-27 04:00:00 12.3 6 Nordeste 11 Nordeste 0 -- -- 86
2018-05-27 03:00:00 12.8 6 Nordeste 15 Nordeste 0 -- -- 86
2018-05-27 02:00:00 12.8 12 Nordeste 18 Nordeste 0 -- -- 86
2018-05-27 01:00:00 13 13 Nordeste 19 Nordeste 0 -- -- 86
2018-05-27 00:00:00 13 14 Nordeste 18 Norte 0 -- -- 86
2018-05-26 23:00:00 13.6 16 Nordeste 26 Norte 0 -- -- 86
2018-05-26 22:00:00 13.5 16 Nordeste 21 Nordeste 0 -- -- 85
2018-05-26 21:00:00 13.6 16 Nordeste 22 Nordeste 0 -- -- 85
2018-05-26 20:00:00 13.7 15 Nordeste 19 Nordeste 0 -- -- 84
2018-05-26 19:00:00 14.1 15 Nordeste 22 Norte 0 -- -- 84
2018-05-26 18:00:00 14.4 18 Nordeste 23 Nordeste 0 -- -- 84
2018-05-26 17:00:00 14.2 20 Nordeste 25 Nordeste 0 -- -- 84
2018-05-26 16:00:00 14 21 Nordeste 35 Nordeste 0 -- -- 84
2018-05-26 15:00:00 13.8 26 Nordeste 31 Nordeste 0 -- -- 84
2018-05-26 14:00:00 14.3 28 Nordeste 35 Nordeste 0 -- -- 84
2018-05-26 13:00:00 14.4 27 Nordeste 36 Nordeste 0 -- -- 84
2018-05-26 12:00:00 13.6 21 Nordeste 26 Nordeste 0 -- -- 86
2018-05-26 11:00:00 12.9 22 Nordeste 32 Nordeste 0 -- -- 86
2018-05-26 10:00:00 12.9 27 Nordeste 37 Nordeste 0 -- -- 86
2018-05-26 09:00:00 12.7 23 Nordeste 36 Nordeste 0.1 -- -- 86
2018-05-26 08:00:00 12.6 26 Nordeste 42 Nordeste 0.4 -- -- 86
2018-05-26 07:00:00 13.1 25 Nordeste 34 Nordeste 0 -- -- 86
2018-05-26 06:00:00 13.1 24 Nordeste 31 Nordeste 0 -- -- 85
2018-05-26 05:00:00 13.1 26 Nordeste 34 Nordeste 0 -- -- 85
2018-05-26 04:00:00 13.2 27 Nordeste 34 Nordeste 0 -- -- 84
2018-05-26 03:00:00 13.2 24 Nordeste 36 Nordeste 0 -- -- 84
2018-05-26 02:00:00 13.4 23 Nordeste 46 Nordeste 0 -- -- 81
2018-05-26 01:00:00 13.3 33 Nordeste 42 Nordeste 0 -- -- 84
2018-05-26 00:00:00 13.6 35 Nordeste 49 Nordeste 0 -- -- 84
2018-05-25 23:00:00 13.4 38 Nordeste 48 Nordeste 0 -- -- 85
2018-05-25 22:00:00 13.3 36 Nordeste 42 Nordeste 0 -- -- 86
2018-05-25 21:00:00 13.4 33 Nordeste 42 Nordeste 0 -- -- 86
2018-05-25 20:00:00 13.6 35 Nordeste 41 Nordeste 0 -- -- 86
2018-05-25 19:00:00 13.4 32 Nordeste 46 Nordeste 0.1 -- -- 85
2018-05-25 18:00:00 13.4 38 Nordeste 50 Norte 0 -- -- 84
2018-05-25 17:00:00 13.6 43 Nordeste 51 Norte 0 -- -- 83
2018-05-25 16:00:00 14 44 Nordeste 51 Nordeste 0 -- -- 83
2018-05-25 15:00:00 13.7 41 Nordeste 50 Nordeste 0 -- -- 82
2018-05-25 14:00:00 14.1 41 Nordeste 50 Nordeste 0 -- -- 82
2018-05-25 13:00:00 14 41 Nordeste 54 Nordeste 0 -- -- 82
2018-05-25 12:00:00 13.9 46 Nordeste 57 Nordeste 0 -- -- 82
2018-05-25 11:00:00 13.7 48 Nordeste 67 Nordeste 0 -- -- 81
2018-05-25 10:00:00 13.3 51 Nordeste 62 Nordeste 0 -- -- 84
2018-05-25 09:00:00 13.1 49 Nordeste 63 Nordeste 0 -- -- 86
2018-05-25 08:00:00 13.3 48 Nordeste 67 Nordeste 0 -- -- 86
2018-05-25 07:00:00 13.3 52 Nordeste 67 Nordeste 0 -- -- 86
2018-05-25 06:00:00 13.3 50 Nordeste 63 Nordeste 0 -- -- 86
2018-05-25 05:00:00 13.4 50 Nordeste 60 Nordeste 0 -- -- 86
2018-05-25 04:00:00 13.7 45 Nordeste 58 Nordeste 0 -- -- 85
2018-05-25 03:00:00 14.2 43 Nordeste 60 Nordeste 0 -- -- 84
2018-05-25 02:00:00 14 49 Nordeste 59 Nordeste 0 -- -- 84
2018-05-25 01:00:00 13.9 51 Nordeste 62 Nordeste 0 -- -- 84
2018-05-25 00:00:00 14.2 51 Nordeste 62 Nordeste 0 -- -- 85
2018-05-24 23:00:00 14.4 46 Nordeste 66 Nordeste 0 -- -- 85
2018-05-24 22:00:00 14.4 49 Nordeste 60 Nordeste 0 -- -- 83
2018-05-24 21:00:00 14.7 31 Nordeste 43 Nordeste 0 -- -- 80
2018-05-24 20:00:00 15.9 34 Nordeste 48 Nordeste 0 -- -- 75
2018-05-24 19:00:00 16.4 41 Nordeste 63 Nordeste 0 -- -- 77
2018-05-24 18:00:00 15.5 50 Nordeste 67 Nordeste 0 -- -- 78
2018-05-24 17:00:00 15.9 57 Nordeste -- -- 0 -- -- 78
2018-05-24 16:00:00 15.5 42 Nordeste -- -- 0 -- -- 78
2018-05-24 15:00:00 15.8 43 Nordeste 51 Nordeste 0 -- -- 78
2018-05-24 14:00:00 16.2 32 Nordeste 39 Nordeste 0 -- -- 78
2018-05-24 13:00:00 17.2 26 Nordeste 40 Nordeste 0 -- -- 78
2018-05-24 12:00:00 16.5 27 Nordeste 31 Nordeste 0 -- -- 83
2018-05-24 11:00:00 15.4 20 Norte 25 Norte 0 -- -- 86
2018-05-24 10:00:00 14.1 12 Nordeste 19 Nordeste 0 -- -- 86
2018-05-24 09:00:00 13.2 8 Norte 12 Norte 0 -- -- 86
2018-05-24 08:00:00 12.4 6 Nordeste 15 Norte 0 -- -- 86
2018-05-24 07:00:00 11.8 10 Norte 13 Norte 0 -- -- 85
2018-05-24 06:00:00 12.5 0 Calma 9 Este 0 -- -- 84
2018-05-24 05:00:00 13 8 Este 15 Este 0 -- -- 84
2018-05-24 04:00:00 12.6 14 Este 16 Este 0 -- -- 84
2018-05-24 03:00:00 12.5 12 Sudeste 15 Sudeste 0 -- -- 85
2018-05-24 02:00:00 13.1 8 Sur 9 Sur 0 -- -- 85
2018-05-24 01:00:00 13.1 9 Sur 16 Sudoeste 0 -- -- 85
2018-05-24 00:00:00 12.8 9 Sudoeste 10 Sudoeste 0 -- -- 84
2018-05-23 23:00:00 13.3 6 Sudoeste 17 Sudoeste 0 -- -- 83
2018-05-23 22:00:00 13.7 8 Sudoeste 10 Sudoeste 0 -- -- 82
2018-05-23 21:00:00 14.6 5 Sur 7 Sur 0 -- -- 80
2018-05-23 20:00:00 15 4 Sudoeste 12 Sudoeste 0 -- -- 78
2018-05-23 19:00:00 14.9 10 Sudoeste 13 Sudoeste 0 -- -- 78
2018-05-23 18:00:00 14.8 10 Sudoeste 18 Sudoeste 0 -- -- 76
2018-05-23 17:00:00 16.1 15 Sudoeste 19 Sudoeste 0 -- -- 72
2018-05-23 16:00:00 16.9 5 Norte 14 Norte 0 -- -- 68
2018-05-23 15:00:00 17.6 6 Norte 18 Sudoeste 0 -- -- 68
2018-05-23 14:00:00 16.4 15 Sudoeste 21 Nordeste 0 -- -- 68
2018-05-23 13:00:00 17.7 16 Nordeste 28 Nordeste 0 -- -- 68
2018-05-23 12:00:00 16.4 24 Nordeste 31 Nordeste 0 -- -- 72
2018-05-23 11:00:00 16 18 Nordeste 24 Nordeste 0 -- -- 74
2018-05-23 10:00:00 15.4 13 Nordeste 17 Nordeste 0 -- -- 75
2018-05-23 09:00:00 14.4 6 Nordeste 15 Nordeste 0 -- -- 76
2018-05-23 08:00:00 13.3 9 Este 25 Este 0 -- -- 75
2018-05-23 07:00:00 12.2 6 Nordeste 17 Nordeste 0 -- -- 77
2018-05-23 06:00:00 12 14 Nordeste 17 Nordeste 0 -- -- 76
2018-05-23 05:00:00 13 3 Sudoeste 5 Sudoeste 0 -- -- 72
2018-05-23 04:00:00 12.9 5 Nordeste 16 Nordeste 0 -- -- 72
2018-05-23 03:00:00 13.4 10 Nordeste 19 Nordeste 0 -- -- 73
2018-05-23 02:00:00 14 12 Nordeste 23 Este 0 -- -- 71
2018-05-23 01:00:00 13.6 17 Nordeste 26 Nordeste 0 -- -- 78
2018-05-23 00:00:00 13.4 15 Nordeste 21 Nordeste 0 -- -- 79
2018-05-22 23:00:00 13.8 18 Nordeste 26 Norte 0 -- -- 77
2018-05-22 22:00:00 14.1 23 Nordeste 30 Nordeste 0 -- -- 75
2018-05-22 21:00:00 15.2 24 Nordeste 29 Nordeste 0 -- -- 71
2018-05-22 20:00:00 16.7 21 Nordeste 32 Nordeste 0 -- -- 69
2018-05-22 19:00:00 16.5 24 Nordeste 31 Nordeste 0 -- -- 71
2018-05-22 18:00:00 16.6 22 Nordeste 32 Nordeste 0 -- -- 70
2018-05-22 17:00:00 16.9 22 Nordeste 37 Nordeste 0 -- -- 70
2018-05-22 16:00:00 16.7 24 Nordeste 33 Nordeste 0 -- -- 70
2018-05-22 15:00:00 16.7 24 Nordeste 35 Nordeste 0 -- -- 71
2018-05-22 14:00:00 16.3 23 Nordeste 34 Nordeste 0 -- -- 71
2018-05-22 13:00:00 16.1 25 Nordeste 31 Nordeste 0 -- -- 74
2018-05-22 12:00:00 15.2 21 Nordeste 30 Nordeste 0 -- -- 77
2018-05-22 11:00:00 13.4 21 Nordeste 26 Nordeste 0 -- -- 82
2018-05-22 10:00:00 13.1 15 Nordeste 22 Nordeste 0 -- -- 83
2018-05-22 09:00:00 13.1 8 Nordeste 12 Sudeste 0 -- -- 83
2018-05-22 08:00:00 10.8 6 Este 9 Este 0 -- -- 82
2018-05-22 07:00:00 10.2 3 Sudeste 9 Sudeste 0 -- -- 81
2018-05-22 06:00:00 10.6 3 Sur 8 Sur 0 -- -- 81
2018-05-22 05:00:00 10.9 7 Sudeste 11 Sur 0 -- -- 81
2018-05-22 04:00:00 11.3 10 Sur 17 Sudeste 0 -- -- 81
2018-05-22 03:00:00 11.4 9 Sudeste 14 Sudeste 0 -- -- 80
2018-05-22 02:00:00 11.4 10 Este 14 Este 0 -- -- 79
2018-05-22 01:00:00 11.8 8 Nordeste 15 Nordeste 0 -- -- 78
2018-05-22 00:00:00 11.7 12 Nordeste 15 Nordeste 0 -- -- 77
2018-05-21 23:00:00 12.2 6 Nordeste 10 Nordeste 0 -- -- 73
2018-05-21 22:00:00 13 9 Nordeste 12 Nordeste 0 -- -- 72
2018-05-21 21:00:00 14.2 8 Nordeste 13 Norte 0 -- -- 69
2018-05-21 20:00:00 15.6 5 Oeste 17 Sudoeste 0 -- -- 63
2018-05-21 19:00:00 15.5 12 Sudoeste 22 Sudoeste 0 -- -- 61
2018-05-21 18:00:00 17 14 Sudoeste 24 Sudoeste 0 -- -- 60
2018-05-21 17:00:00 17 18 Sudoeste 30 Sudoeste 0 -- -- 61
2018-05-21 16:00:00 16.3 24 Sudoeste 36 Sudoeste 0 -- -- 61
2018-05-21 15:00:00 16.8 26 Sudoeste 39 Sudoeste 0 -- -- 60
2018-05-21 14:00:00 17.7 27 Sudoeste 34 Sudoeste 0 -- -- 60
2018-05-21 13:00:00 17.2 23 Sudoeste 33 Sudoeste 0 -- -- 64
2018-05-21 12:00:00 16.9 18 Sur 28 Sur 0 -- -- 65
2018-05-21 11:00:00 16.4 16 Sur 24 Sur 0 -- -- 71
2018-05-21 10:00:00 15.1 12 Sur 17 Sur 0 -- -- 80
2018-05-21 09:00:00 13.1 6 Sur 12 Sur 0 -- -- 81
2018-05-21 08:00:00 11.9 7 Sur 13 Sur 0 -- -- 82
2018-05-21 07:00:00 11.1 10 Sur 14 Sudoeste 0 -- -- 82
2018-05-21 06:00:00 11.6 9 Sur 11 Sur 0 -- -- 80
2018-05-21 05:00:00 12.3 5 Sur 8 Sur 0 -- -- 79
2018-05-21 04:00:00 12.6 3 Sur 9 Sur 0 -- -- 76
2018-05-21 03:00:00 12.7 8 Sur 10 Sur 0 -- -- 72
2018-05-21 02:00:00 13 6 Sudeste 9 Este 0 -- -- 66
2018-05-21 01:00:00 13.5 9 Nordeste 22 Nordeste 0 -- -- 64
2018-05-21 00:00:00 14.2 19 Nordeste 78 Nordeste 0 -- -- 62
2018-05-20 23:00:00 15.3 25 Nordeste 41 Nordeste 0 -- -- 61
2018-05-20 22:00:00 15.1 17 Nordeste 39 Nordeste 0 -- -- 64
2018-05-20 21:00:00 15.2 22 Nordeste 41 Nordeste 0 -- -- 67
2018-05-20 20:00:00 15.2 33 Nordeste 47 Nordeste 0 -- -- 65
2018-05-20 19:00:00 15.5 37 Nordeste 51 Nordeste 0 -- -- 61
2018-05-20 18:00:00 15.5 42 Nordeste 51 Nordeste 0 -- -- 61
2018-05-20 17:00:00 16.8 35 Nordeste 44 Nordeste 0 -- -- 61
2018-05-20 16:00:00 16.9 35 Nordeste 45 Nordeste 0 -- -- 62
2018-05-20 15:00:00 16 40 Nordeste 48 Nordeste 0 -- -- 61
2018-05-20 14:00:00 16.1 39 Nordeste 46 Nordeste 0 -- -- 59
2018-05-20 13:00:00 15.7 39 Nordeste 45 Nordeste 0 -- -- 59
2018-05-20 12:00:00 15.4 31 Nordeste 35 Nordeste 0 -- -- 57
2018-05-20 11:00:00 15.1 28 Nordeste 36 Nordeste 0 -- -- 58
2018-05-20 10:00:00 13.9 27 Nordeste 33 Nordeste 0 -- -- 58
2018-05-20 09:00:00 13.7 21 Nordeste 33 Nordeste 0 -- -- 63
2018-05-20 08:00:00 12.6 23 Nordeste 35 Nordeste 0 -- -- 64
2018-05-20 07:00:00 12 13 Nordeste 25 Nordeste 0 -- -- 60
2018-05-20 06:00:00 12.4 20 Nordeste 31 Norte 0 -- -- 53
2018-05-20 05:00:00 12.7 19 Nordeste 36 Nordeste 0 -- -- 50
2018-05-20 04:00:00 12.3 15 Nordeste 24 Nordeste 0 -- -- 51
2018-05-20 03:00:00 13.5 17 Nordeste 31 Nordeste 0 -- -- 50
2018-05-20 02:00:00 14 21 Nordeste 37 Nordeste 0 -- -- 50
2018-05-20 01:00:00 15 24 Nordeste 39 Nordeste 0 -- -- 51
2018-05-20 00:00:00 15.7 22 Nordeste 39 Nordeste 0 -- -- 54
2018-05-19 23:00:00 14.8 19 Nordeste 30 Nordeste 0 -- -- 63
2018-05-19 22:00:00 14 19 Nordeste 30 Nordeste 0 -- -- 65
2018-05-19 21:00:00 15.8 12 Norte 24 Norte 0 -- -- 61
2018-05-19 20:00:00 17 17 Nordeste 25 Nordeste 0 -- -- 58
2018-05-19 19:00:00 17.8 22 Nordeste 25 Nordeste 0 -- -- 60
2018-05-19 18:00:00 17.7 15 Norte 20 Norte 0 -- -- 61
2018-05-19 17:00:00 18.1 6 Nordeste 15 Nordeste 0 -- -- 60
2018-05-19 16:00:00 18.5 8 Nordeste 19 Nordeste 0 -- -- 57
2018-05-19 15:00:00 18.9 6 Nordeste 17 Nordeste 0 -- -- 57
2018-05-19 14:00:00 18.2 5 Nordeste 13 Nordeste 0 -- -- 63
2018-05-19 13:00:00 17.6 7 Nordeste 20 Nordeste 0 -- -- 64
2018-05-19 12:00:00 17.3 11 Nordeste 16 Norte 0 -- -- 63
2018-05-19 11:00:00 19.1 6 Nordeste 15 Este 0 -- -- 63
2018-05-19 10:00:00 18.4 9 Este 17 Este 0 -- -- 70
2018-05-19 09:00:00 15.5 9 Nordeste 26 Este 0 -- -- 72
2018-05-19 08:00:00 14.6 20 Este 30 Este 0 -- -- 77
2018-05-19 07:00:00 13.6 16 Nordeste 24 Este 0 -- -- 78
2018-05-19 06:00:00 13.8 19 Nordeste 33 Nordeste 0 -- -- 79
2018-05-19 05:00:00 13.5 21 Nordeste 28 Nordeste 0 -- -- 80
2018-05-19 04:00:00 13.5 16 Nordeste 38 Nordeste 0 -- -- 77
2018-05-19 03:00:00 13.9 24 Nordeste 49 Nordeste 0 -- -- 76
2018-05-19 02:00:00 13.9 23 Nordeste 38 Nordeste 0 -- -- 78
2018-05-19 01:00:00 14.1 27 Nordeste 46 Nordeste 0 -- -- 78
2018-05-19 00:00:00 13.9 27 Nordeste 43 Nordeste 0 -- -- 81
2018-05-18 23:00:00 13.4 22 Nordeste 42 Nordeste 0 -- -- 83
2018-05-18 22:00:00 13.5 32 Nordeste 46 Nordeste 0 -- -- 83
2018-05-18 21:00:00 13.8 37 Nordeste 58 Nordeste 0 -- -- 82
2018-05-18 20:00:00 13.8 36 Nordeste 53 Nordeste 0 -- -- 82
2018-05-18 19:00:00 13.6 44 Nordeste 51 Nordeste 0 -- -- 81
2018-05-18 18:00:00 14.1 36 Nordeste 61 Nordeste 0 -- -- 78
2018-05-18 17:00:00 14.6 52 Nordeste 64 Nordeste 0 -- -- 78
2018-05-18 16:00:00 14.4 52 Nordeste 67 Nordeste 0 -- -- 78
2018-05-18 15:00:00 14.8 45 Nordeste 65 Nordeste 0 -- -- 79
2018-05-18 14:00:00 14.7 51 Nordeste 68 Nordeste 0 -- -- 79
2018-05-18 13:00:00 14.5 45 Nordeste 57 Nordeste 0 -- -- 79
2018-05-18 12:00:00 14.4 41 Nordeste 51 Nordeste 0 -- -- 80
2018-05-18 11:00:00 13.4 39 Nordeste 53 Nordeste 0 -- -- 84
2018-05-18 10:00:00 13.4 42 Nordeste 50 Nordeste 0 -- -- 82
2018-05-18 09:00:00 13.2 40 Nordeste 47 Nordeste 0 -- -- 82
2018-05-18 08:00:00 13.4 30 Nordeste 52 Nordeste 0 -- -- 82
2018-05-18 07:00:00 13.1 44 Nordeste 58 Nordeste 0 -- -- 83
2018-05-18 06:00:00 13.1 51 Nordeste 67 Nordeste 0 -- -- 83
2018-05-18 05:00:00 13 54 Nordeste 66 Nordeste 0 -- -- 83
2018-05-18 04:00:00 13.1 51 Nordeste 64 Nordeste 0 -- -- 84
2018-05-18 03:00:00 13.2 52 Nordeste 66 Nordeste 0 -- -- 83
2018-05-18 02:00:00 13.2 49 Nordeste 62 Nordeste 0 -- -- 84
2018-05-18 01:00:00 13.2 42 Nordeste 65 Nordeste 0 -- -- 83
2018-05-18 00:00:00 13.1 49 Nordeste 67 Nordeste 0 -- -- 83
2018-05-17 23:00:00 13.2 53 Nordeste 71 Nordeste 0 -- -- 83
2018-05-17 22:00:00 13.2 56 Nordeste 80 Nordeste 0 -- -- 82
2018-05-17 21:00:00 13.2 49 Nordeste 72 Nordeste 0 -- -- 80
2018-05-17 20:00:00 13.2 54 Nordeste 68 Nordeste 0 -- -- 76
2018-05-17 19:00:00 13.4 55 Nordeste 67 Nordeste 0 -- -- 73
2018-05-17 18:00:00 13.9 51 Nordeste 64 Nordeste 0 -- -- 72
2018-05-17 17:00:00 14.2 54 Nordeste 64 Nordeste 0 -- -- 71
2018-05-17 16:00:00 14.2 55 Nordeste 67 Nordeste 0 -- -- 72
2018-05-17 15:00:00 14.3 47 Nordeste 63 Nordeste 0 -- -- 71
2018-05-17 14:00:00 14.1 55 Nordeste 68 Nordeste 0 -- -- 72
2018-05-17 13:00:00 14 52 Nordeste 64 Nordeste 0 -- -- 72
2018-05-17 12:00:00 13.6 54 Nordeste 69 Nordeste 0 -- -- 73
2018-05-17 11:00:00 13.1 57 Nordeste 69 Nordeste 0 -- -- 75
2018-05-17 10:00:00 12.6 54 Nordeste 72 Nordeste 0 -- -- 77
2018-05-17 09:00:00 12.3 61 Nordeste 72 Nordeste 0 -- -- 78
2018-05-17 08:00:00 12 56 Nordeste 73 Nordeste 0 -- -- 78
2018-05-17 07:00:00 11.9 58 Nordeste 71 Nordeste 0 -- -- 77
2018-05-17 06:00:00 12.1 51 Nordeste 72 Norte 0 -- -- 76
2018-05-17 05:00:00 12.1 57 Nordeste 67 Nordeste 0 -- -- 76
2018-05-17 04:00:00 12.1 52 Nordeste 68 Nordeste 0 -- -- 75
2018-05-17 03:00:00 12.2 55 Nordeste 69 Nordeste 0 -- -- 75
2018-05-17 02:00:00 12.3 55 Nordeste 68 Nordeste 0 -- -- 73
2018-05-17 01:00:00 12.3 55 Nordeste 68 Nordeste 0 -- -- 73
2018-05-17 00:00:00 12.3 53 Nordeste 68 Nordeste 0 -- -- 74
2018-05-16 23:00:00 12.4 52 Nordeste 65 Nordeste 0 -- -- 76
2018-05-16 22:00:00 12.6 49 Nordeste 64 Nordeste 0 -- -- 76
2018-05-16 21:00:00 12.9 54 Nordeste 66 Nordeste 0 -- -- 75
2018-05-16 20:00:00 13.3 49 Nordeste 65 Nordeste 0 -- -- 72
2018-05-16 19:00:00 13.9 51 Nordeste 62 Nordeste 0 -- -- 73
2018-05-16 18:00:00 14.2 51 Nordeste 62 Nordeste 0 -- -- 72
2018-05-16 17:00:00 14.3 55 Nordeste 63 Nordeste 0 -- -- 70
2018-05-16 16:00:00 14.7 50 Nordeste 75 Nordeste 0 -- -- 68
2018-05-16 15:00:00 14.5 52 Nordeste 64 Nordeste 0 -- -- 69
2018-05-16 14:00:00 14.6 53 Nordeste 66 Nordeste 0 -- -- 69
2018-05-16 13:00:00 14.5 51 Nordeste 64 Nordeste 0 -- -- 72
2018-05-16 12:00:00 13.9 52 Nordeste 73 Nordeste 0 -- -- 75
2018-05-16 11:00:00 13.5 58 Nordeste 69 Nordeste 0 -- -- 76
2018-05-16 10:00:00 13.1 53 Nordeste 63 Nordeste 0 -- -- 76
2018-05-16 09:00:00 13.4 36 Nordeste 61 Nordeste 0 -- -- 73
2018-05-16 08:00:00 12.4 49 Nordeste 62 Nordeste 0 -- -- 80
2018-05-16 07:00:00 12.2 46 Nordeste 55 Nordeste 0 -- -- 79
2018-05-16 06:00:00 12.3 43 Nordeste 51 Nordeste 0 -- -- 75
2018-05-16 05:00:00 12.3 32 Nordeste 54 Nordeste 0 -- -- 72
2018-05-16 04:00:00 12.5 36 Nordeste 65 Nordeste 0 -- -- 73
2018-05-16 03:00:00 12.5 53 Nordeste 65 Nordeste 0 -- -- 77
2018-05-16 02:00:00 12.6 49 Nordeste 64 Nordeste 0 -- -- 75
2018-05-16 01:00:00 12.5 50 Nordeste 70 Nordeste 0 -- -- 76
2018-05-16 00:00:00 12.6 53 Nordeste 62 Nordeste 0 -- -- 79
2018-05-15 23:00:00 12.6 49 Nordeste 66 Nordeste 0 -- -- 78
2018-05-15 22:00:00 12.6 54 Nordeste 70 Nordeste 0 -- -- 79
2018-05-15 21:00:00 12.8 47 Nordeste 56 Nordeste 0 -- -- 81
2018-05-15 20:00:00 13 45 Nordeste 55 Nordeste 0 -- -- 81
2018-05-15 19:00:00 13.3 44 Nordeste 55 Nordeste 0 -- -- 79
2018-05-15 18:00:00 13.6 44 Nordeste 53 Nordeste 0 -- -- 79
2018-05-15 17:00:00 14.2 42 Nordeste 50 Nordeste 0 -- -- 79
2018-05-15 16:00:00 14.5 41 Nordeste 47 Nordeste 0 -- -- 80
2018-05-15 15:00:00 14.5 36 Nordeste 47 Nordeste 0 -- -- 83
2018-05-15 14:00:00 13.9 37 Nordeste 43 Nordeste 0 -- -- 84
2018-05-15 13:00:00 13.4 33 Nordeste 44 Nordeste 0 -- -- 86
2018-05-15 12:00:00 12.7 34 Nordeste 42 Nordeste 0 -- -- 86
2018-05-15 11:00:00 12.9 32 Nordeste 40 Nordeste 0 -- -- 87
2018-05-15 10:00:00 12.1 33 Nordeste 44 Nordeste 0.1 -- -- 87
2018-05-15 09:00:00 12.2 20 Nordeste 30 Nordeste 0.1 -- -- 87
2018-05-15 08:00:00 12.1 25 Nordeste 33 Nordeste 0.1 -- -- 87
2018-05-15 07:00:00 12 25 Nordeste 34 Nordeste 0 -- -- 87
2018-05-15 06:00:00 12 27 Nordeste 41 Nordeste 0.3 -- -- 87
2018-05-15 05:00:00 12.1 26 Nordeste 33 Nordeste 0 -- -- 87
2018-05-15 04:00:00 12.5 28 Nordeste 34 Nordeste 0 -- -- 87
2018-05-15 03:00:00 12.6 26 Nordeste 36 Nordeste 0 -- -- 87
2018-05-15 02:00:00 12.6 28 Nordeste 35 Nordeste 0 -- -- 87
2018-05-15 01:00:00 12.5 28 Nordeste 33 Norte 0 -- -- 87
2018-05-15 00:00:00 12.6 29 Nordeste 36 Nordeste 0 -- -- 87
2018-05-14 23:00:00 12.7 30 Nordeste 35 Nordeste 0 -- -- 87
2018-05-14 22:00:00 12.7 25 Norte 29 Norte 0 -- -- 87
2018-05-14 21:00:00 12.8 21 Norte 28 Norte 0 -- -- 87
2018-05-14 20:00:00 12.9 22 Norte 27 Norte 0 -- -- 87
2018-05-14 19:00:00 13.1 21 Norte 24 Norte 0 -- -- 87
2018-05-14 18:00:00 13.4 18 Norte 21 Norte 0 -- -- 87
2018-05-14 17:00:00 13.6 17 Nordeste 27 Nordeste 0 -- -- 87
2018-05-14 16:00:00 13.1 23 Nordeste 29 Norte 0 -- -- 87
2018-05-14 15:00:00 13.2 26 Norte 33 Norte 0 -- -- 87
2018-05-14 14:00:00 12.8 28 Norte 34 Norte 0 -- -- 87
2018-05-14 13:00:00 12.7 27 Norte 37 Norte 0 -- -- 86
2018-05-14 12:00:00 12.6 28 Norte 35 Norte 0 -- -- 86
2018-05-14 11:00:00 12.8 27 Norte 38 Norte 0 -- -- 86
2018-05-14 10:00:00 12.6 29 Norte 37 Norte 0 -- -- 86
2018-05-14 09:00:00 12.6 25 Norte 33 Norte 0 -- -- 86
2018-05-14 08:00:00 12.5 22 Norte 32 Norte 0 -- -- 86
2018-05-14 07:00:00 12.3 26 Norte 32 Norte 0 -- -- 86
2018-05-14 06:00:00 12.3 21 Norte 32 Norte 0 -- -- 86
2018-05-14 05:00:00 12.4 20 Norte 35 Noroeste 0 -- -- 86
2018-05-14 04:00:00 12.6 18 Norte 32 Norte 0.3 -- -- 85
2018-05-14 03:00:00 12.6 16 Noroeste 26 Noroeste 0.2 -- -- 85
2018-05-14 02:00:00 12.6 17 Noroeste 26 Noroeste 0 -- -- 84
2018-05-14 01:00:00 12.6 17 Oeste 26 Oeste 0.1 -- -- 83
2018-05-11 20:00:00 14.5 14 Oeste 19 Oeste 0 -- -- 58
2018-05-11 19:00:00 14.7 12 Oeste 21 Noroeste 0 -- -- 62
2018-05-11 18:00:00 14.2 15 Noroeste 21 Noroeste 0 -- -- 71
2018-05-11 17:00:00 13.5 7 Oeste 13 Sudoeste 0 -- -- 83
2018-05-11 16:00:00 12.8 4 Sudoeste 54 Sudoeste 0.6 -- -- 83
2018-05-11 15:00:00 12.2 32 Sudoeste 51 Sur 0.3 -- -- 83
2018-05-11 14:00:00 12.1 35 Sur 51 Sur 0 -- -- 80
2018-05-11 13:00:00 12.4 31 Sur 75 Sudoeste 0 -- -- 80
2018-05-11 12:00:00 12.1 33 Sur 44 Sur 0 -- -- 79
2018-05-11 11:00:00 11.4 30 Sur 44 Sudoeste 0 -- -- 78
2018-05-11 10:00:00 10.8 28 Sur 42 Sur 0.2 -- -- 77
2018-05-11 09:00:00 10.8 27 Sur 39 Sudoeste 0.2 -- -- 76
2018-05-11 08:00:00 11.2 29 Sudoeste 38 Sudoeste 0 -- -- 74
2018-05-11 07:00:00 10.8 21 Sur 34 Sudoeste 0 -- -- 73
2018-05-11 06:00:00 11.1 27 Sudoeste 33 Sudoeste 0 -- -- 74
2018-05-11 05:00:00 11 26 Sudoeste 34 Sudoeste 0 -- -- 76
2018-05-11 04:00:00 10.8 26 Sudoeste 31 Sudoeste 0 -- -- 79
2018-05-11 03:00:00 11.1 22 Sudoeste 28 Sudoeste 0 -- -- 77
2018-05-11 02:00:00 11 15 Sudoeste 19 Sur 0 -- -- 70
2018-05-11 01:00:00 12.2 13 Sur 17 Sudeste 0 -- -- 66
2018-05-11 00:00:00 11.7 0 Calma 6 Nordeste 0 -- -- 67
2018-05-10 23:00:00 11.1 7 Nordeste 14 Este 0 -- -- 65
2018-05-10 22:00:00 11.5 13 Este 19 Nordeste 0 -- -- 64
2018-05-10 21:00:00 13.1 17 Nordeste 36 Nordeste 0 -- -- 59
2018-05-10 20:00:00 13.1 32 Nordeste 52 Nordeste 0 -- -- 57
2018-05-10 19:00:00 13.2 41 Nordeste 51 Nordeste 0 -- -- 54
2018-05-10 18:00:00 13.4 44 Nordeste 53 Nordeste 0 -- -- 54
2018-05-10 17:00:00 13.8 45 Nordeste 55 Nordeste 0 -- -- 54
2018-05-10 16:00:00 13.9 42 Nordeste 54 Nordeste 0 -- -- 54
2018-05-10 15:00:00 13.9 43 Nordeste 52 Nordeste 0 -- -- 55
2018-05-10 14:00:00 13.9 42 Nordeste 51 Nordeste 0 -- -- 55
2018-05-10 13:00:00 13.6 42 Nordeste 54 Nordeste 0 -- -- 56
2018-05-10 12:00:00 13.1 40 Nordeste 51 Nordeste 0 -- -- 57
2018-05-10 11:00:00 12.2 41 Nordeste 50 Nordeste 0 -- -- 60
2018-05-10 10:00:00 12 40 Nordeste 49 Nordeste 0 -- -- 65
2018-05-10 09:00:00 11.7 38 Nordeste 45 Nordeste 0 -- -- 67
2018-05-10 08:00:00 11.5 37 Nordeste 44 Nordeste 0 -- -- 68
2018-05-10 07:00:00 11.3 38 Nordeste 49 Nordeste 0 -- -- 67
2018-05-10 06:00:00 11.3 33 Nordeste 43 Nordeste 0 -- -- 70
2018-05-10 05:00:00 11.2 36 Nordeste 44 Norte 0 -- -- 73
2018-05-10 04:00:00 11.2 33 Nordeste 40 Nordeste 0 -- -- 73
2018-05-10 03:00:00 11.2 34 Nordeste 45 Nordeste 0 -- -- 75
2018-05-10 02:00:00 11.5 33 Nordeste 43 Norte 0 -- -- 77
2018-05-10 01:00:00 11.6 37 Nordeste 42 Nordeste 0 -- -- 78
2018-05-10 00:00:00 11.8 35 Nordeste 47 Norte 0.1 -- -- 80
2018-05-09 23:00:00 12.1 13 Norte 34 Noroeste 1 -- -- 76
2018-05-09 22:00:00 12.2 10 Noroeste 15 Noroeste 0 -- -- 70
2018-05-09 21:00:00 13.2 5 Oeste 10 Oeste 0 -- -- 65
2018-05-09 20:00:00 13.7 8 Oeste 14 Oeste 0 -- -- 60
2018-05-09 19:00:00 14.8 6 Noroeste 12 Noroeste 0 -- -- 61
2018-05-09 18:00:00 14.6 8 Noroeste 15 Noroeste 0 -- -- 61
2018-05-09 17:00:00 14.9 9 Noroeste 14 Noroeste 0 -- -- 60
2018-05-09 16:00:00 15.2 10 Norte 16 Norte 0 -- -- 61
2018-05-09 15:00:00 15.9 12 Norte 22 Norte 0 -- -- 61
2018-05-09 14:00:00 15.8 14 Norte 19 Norte 0 -- -- 63
2018-05-09 13:00:00 15 13 Norte 18 Norte 0 -- -- 67
2018-05-09 12:00:00 13.5 13 Norte 19 Nordeste 0 -- -- 67
2018-05-09 11:00:00 14.3 17 Nordeste 23 Norte 0 -- -- 68
2018-05-09 10:00:00 13.1 19 Nordeste 24 Nordeste 0 -- -- 73
2018-05-09 09:00:00 12.3 21 Nordeste 26 Nordeste 0 -- -- 76
2018-05-09 08:00:00 11.7 23 Nordeste 29 Nordeste 0 -- -- 78
2018-05-09 07:00:00 11.8 24 Nordeste 31 Nordeste 0 -- -- 78
2018-05-09 06:00:00 11.9 27 Nordeste 32 Nordeste 0 -- -- 79
2018-05-09 05:00:00 12.1 24 Nordeste 34 Nordeste 0 -- -- 80
2018-05-09 04:00:00 12 29 Nordeste 37 Nordeste 0 -- -- 83
2018-05-09 03:00:00 12.2 30 Nordeste 41 Nordeste 0 -- -- 84
2018-05-09 02:00:00 12.2 32 Nordeste 41 Nordeste 0 -- -- 84
2018-05-09 01:00:00 12.4 31 Nordeste 36 Norte 0 -- -- 85
2018-05-09 00:00:00 12.7 27 Nordeste 38 Nordeste 0 -- -- 85
2018-05-08 23:00:00 12.9 29 Nordeste 36 Nordeste 0 -- -- 84
2018-05-08 22:00:00 12.9 27 Nordeste 40 Nordeste 0 -- -- 84
2018-05-08 21:00:00 12.9 32 Nordeste 37 Nordeste 0 -- -- 84
2018-05-08 20:00:00 12.8 20 Nordeste 23 Nordeste 0 -- -- 80
2018-05-08 19:00:00 13 16 Nordeste 19 Nordeste 0 -- -- 76
2018-05-08 18:00:00 13.8 16 Nordeste 22 Norte 0 -- -- 72
2018-05-08 17:00:00 14.4 16 Norte 22 Norte 0 -- -- 70
2018-05-08 16:00:00 15.8 18 Norte 24 Nordeste 0 -- -- 68
2018-05-08 15:00:00 15 20 Nordeste 26 Nordeste 0 -- -- 71
2018-05-08 14:00:00 15.1 23 Nordeste 31 Nordeste 0 -- -- 71
2018-05-08 13:00:00 14.3 21 Nordeste 26 Nordeste 0 -- -- 73
2018-05-08 12:00:00 13.4 22 Nordeste 29 Nordeste 0 -- -- 76
2018-05-08 11:00:00 11.4 26 Nordeste 32 Norte 0 -- -- 78
2018-05-08 10:00:00 11.5 25 Norte 31 Norte 0 -- -- 80
2018-05-08 09:00:00 11.3 22 Nordeste 32 Nordeste 0 -- -- 81
2018-05-08 08:00:00 11 26 Nordeste 35 Nordeste 0 -- -- 83
2018-05-08 07:00:00 11.3 26 Nordeste 33 Nordeste 0 -- -- 84
2018-05-08 06:00:00 11.3 25 Nordeste 37 Norte 0 -- -- 84
2018-05-08 05:00:00 11.3 28 Nordeste 36 Nordeste 0 -- -- 83
2018-05-08 04:00:00 11.5 28 Nordeste 36 Nordeste 0 -- -- 84
2018-05-08 03:00:00 11.8 29 Nordeste 37 Nordeste 0 -- -- 84
2018-05-08 02:00:00 12.1 28 Nordeste 40 Nordeste 0 -- -- 84
2018-05-08 01:00:00 12.1 31 Nordeste 36 Nordeste 0 -- -- 85
2018-05-08 00:00:00 12.1 31 Nordeste 36 Nordeste 0 -- -- 85
2018-05-07 23:00:00 12.5 29 Nordeste 40 Nordeste 0 -- -- 86
2018-05-07 22:00:00 12.6 28 Nordeste 44 Nordeste 0 -- -- 86
2018-05-07 21:00:00 12.7 32 Nordeste 42 Nordeste 0 -- -- 85
2018-05-07 20:00:00 12.9 36 Nordeste 42 Nordeste 0 -- -- 85
2018-05-07 19:00:00 13 33 Nordeste 39 Nordeste 0 -- -- 84
2018-05-07 18:00:00 13.4 34 Nordeste 43 Nordeste 0 -- -- 83
2018-05-07 17:00:00 13.7 31 Nordeste 42 Nordeste 0 -- -- 83
2018-05-07 16:00:00 13.7 32 Nordeste 43 Nordeste 0 -- -- 83
2018-05-07 15:00:00 13.8 33 Nordeste 44 Nordeste 0 -- -- 83
2018-05-07 14:00:00 13.8 35 Nordeste 44 Nordeste 0 -- -- 81
2018-05-07 13:00:00 15.1 32 Nordeste 37 Nordeste 0 -- -- 82
2018-05-07 12:00:00 14.4 35 Nordeste 42 Nordeste 0 -- -- 84
2018-05-07 11:00:00 12.9 37 Nordeste 44 Nordeste 0 -- -- 84
2018-05-07 10:00:00 13.3 27 Nordeste 37 Nordeste 0 -- -- 84
2018-05-07 09:00:00 13.2 23 Nordeste 33 Nordeste 0 -- -- 84
2018-05-07 08:00:00 12.7 13 Nordeste 25 Norte 0 -- -- 84
2018-05-07 07:00:00 12.7 13 Nordeste 25 Nordeste 0 -- -- 83
2018-05-07 06:00:00 12.8 9 Nordeste 16 Este 0 -- -- 80
2018-05-07 05:00:00 13.2 11 Este 23 Norte 0 -- -- 81
2018-05-07 04:00:00 13 12 Nordeste 19 Nordeste 0 -- -- 80
2018-05-07 03:00:00 13.2 17 Nordeste 23 Nordeste 0 -- -- 80
2018-05-07 02:00:00 13.2 12 Nordeste 23 Nordeste 0 -- -- 79
2018-05-07 01:00:00 13.1 17 Nordeste 21 Este 0 -- -- 78
2018-05-07 00:00:00 13.1 19 Nordeste 23 Norte 0 -- -- 78
2018-05-06 23:00:00 13.2 17 Nordeste 27 Nordeste 0 -- -- 77
2018-05-06 22:00:00 13 19 Nordeste 24 Nordeste 0 -- -- 77
2018-05-06 21:00:00 13.9 18 Nordeste 25 Norte 0 -- -- 74
2018-05-06 20:00:00 14.9 19 Nordeste 23 Nordeste 0 -- -- 71
2018-05-06 19:00:00 15.2 19 Norte 28 Norte 0 -- -- 69
2018-05-06 18:00:00 15.7 16 Nordeste 22 Nordeste 0 -- -- 68
2018-05-06 17:00:00 16.9 8 Norte 16 Nordeste 0 -- -- 66
2018-05-06 16:00:00 16.5 11 Norte 21 Nordeste 0 -- -- 67
2018-05-06 15:00:00 16.9 12 Nordeste 18 Nordeste 0 -- -- 65
2018-05-06 14:00:00 16.6 11 Nordeste 15 Nordeste 0 -- -- 64
2018-05-06 13:00:00 16.2 9 Nordeste 15 Nordeste 0 -- -- 62
2018-05-06 12:00:00 18.2 2 Norte 8 Norte 0 -- -- 59
2018-05-06 11:00:00 16.4 4 Norte 9 Nordeste 0 -- -- 65
2018-05-06 10:00:00 15.1 6 Nordeste 9 Nordeste 0 -- -- 65
2018-05-06 09:00:00 14.6 6 Este 16 Este 0 -- -- 69
2018-05-06 08:00:00 11.8 13 Nordeste 20 Nordeste 0 -- -- 71
2018-05-06 07:00:00 11.5 15 Nordeste 28 Nordeste 0 -- -- 69
2018-05-06 06:00:00 11.9 18 Nordeste 32 Nordeste 0 -- -- 70
2018-05-06 05:00:00 12.1 18 Nordeste 37 Nordeste 0 -- -- 72
2018-05-06 04:00:00 12.2 20 Nordeste 36 Nordeste 0 -- -- 75
2018-05-06 03:00:00 12.2 22 Nordeste 50 Nordeste 0 -- -- 75
2018-05-06 02:00:00 12.6 26 Nordeste 41 Nordeste 0 -- -- 76
2018-05-06 01:00:00 12.5 23 Nordeste 52 Nordeste 0 -- -- 76
2018-05-06 00:00:00 12.7 39 Nordeste 50 Nordeste 0 -- -- 77
2018-05-05 23:00:00 12.8 24 Nordeste 43 Nordeste 0 -- -- 75
2018-05-05 22:00:00 12.7 23 Nordeste 51 Nordeste 0 -- -- 75
2018-05-05 21:00:00 13 41 Nordeste 51 Nordeste 0 -- -- 72
2018-05-05 20:00:00 13.8 41 Nordeste 56 Nordeste 0 -- -- 67
2018-05-05 19:00:00 14.2 45 Nordeste 57 Nordeste 0 -- -- 65
2018-05-05 18:00:00 14.2 48 Nordeste 59 Nordeste 0 -- -- 64
2018-05-05 17:00:00 14.4 50 Nordeste 63 Nordeste 0 -- -- 65
2018-05-05 16:00:00 14.1 51 Nordeste 64 Nordeste 0 -- -- 65
2018-05-05 15:00:00 14.4 47 Nordeste 60 Norte 0 -- -- 63
2018-05-05 14:00:00 14.6 46 Nordeste 55 Nordeste 0 -- -- 62
2018-05-05 13:00:00 14.3 43 Nordeste 50 Nordeste 0 -- -- 59
2018-05-05 12:00:00 14.2 37 Nordeste 43 Nordeste 0 -- -- 58
2018-05-05 11:00:00 13.7 29 Nordeste 44 Nordeste 0 -- -- 59
2018-05-05 10:00:00 12.4 32 Nordeste 42 Nordeste 0 -- -- 64
2018-05-05 09:00:00 11.7 23 Nordeste 41 Nordeste 0 -- -- 67
2018-05-05 08:00:00 10.6 19 Nordeste 56 Nordeste 0 -- -- 69
2018-05-05 07:00:00 11 34 Nordeste 60 Nordeste 0 -- -- 69
2018-05-05 06:00:00 11.2 38 Nordeste 52 Nordeste 0 -- -- 69
2018-05-05 05:00:00 11.4 34 Nordeste 52 Nordeste 0 -- -- 69
2018-05-05 04:00:00 11.5 27 Nordeste 49 Nordeste 0 -- -- 70
2018-05-05 03:00:00 11.5 34 Nordeste 62 Nordeste 0 -- -- 72
2018-05-05 02:00:00 11.8 48 Nordeste 71 Nordeste 0 -- -- 73
2018-05-05 01:00:00 11.9 58 Nordeste 75 Nordeste 0 -- -- 73
2018-05-05 00:00:00 11.9 56 Nordeste 79 Nordeste 0 -- -- 72
2018-05-04 23:00:00 11.9 61 Nordeste 75 Nordeste 0 -- -- 70
2018-05-04 22:00:00 11.9 63 Nordeste 78 Nordeste 0 -- -- 68
2018-05-04 21:00:00 12 60 Nordeste 69 Nordeste 0 -- -- 65
2018-05-04 20:00:00 12.4 58 Nordeste 75 Nordeste 0 -- -- 64
2018-05-04 19:00:00 12.7 62 Nordeste 74 Nordeste 0 -- -- 63
2018-05-04 18:00:00 13 58 Nordeste 68 Nordeste 0 -- -- 61
2018-05-04 17:00:00 13.3 52 Nordeste 67 Nordeste 0 -- -- 61
2018-05-04 16:00:00 13.4 54 Nordeste 68 Nordeste 0 -- -- 61
2018-05-04 15:00:00 13.7 51 Nordeste 63 Nordeste 0 -- -- 61
2018-05-04 14:00:00 13.4 54 Nordeste 67 Nordeste 0 -- -- 61
2018-05-04 13:00:00 13.4 51 Nordeste 70 Nordeste 0 -- -- 61
2018-05-04 12:00:00 13 50 Nordeste 65 Nordeste 0 -- -- 63
2018-05-04 11:00:00 12 50 Nordeste 66 Nordeste 0 -- -- 64
2018-05-04 10:00:00 12.1 49 Nordeste 61 Nordeste 0 -- -- 64
2018-05-04 09:00:00 11.9 48 Nordeste 62 Nordeste 0 -- -- 64
2018-05-04 08:00:00 11.4 33 Nordeste 58 Nordeste 0 -- -- 66
2018-05-04 07:00:00 11.1 48 Nordeste 63 Nordeste 0 -- -- 66
2018-05-04 06:00:00 11.2 50 Nordeste 65 Nordeste 0 -- -- 67
2018-05-04 05:00:00 11.1 51 Nordeste 64 Nordeste 0 -- -- 66
2018-05-04 04:00:00 11.3 52 Nordeste 63 Nordeste 0 -- -- 66
2018-05-04 03:00:00 11.2 53 Nordeste 65 Nordeste 0 -- -- 66
2018-05-04 02:00:00 11.2 55 Nordeste 65 Nordeste 0 -- -- 65
2018-05-04 01:00:00 11.2 53 Nordeste 66 Nordeste 0 -- -- 65
2018-05-04 00:00:00 11.2 52 Nordeste 66 Nordeste 0 -- -- 65
2018-05-03 23:00:00 11.2 55 Nordeste 67 Nordeste 0 -- -- 65
2018-05-03 22:00:00 11.1 55 Nordeste 64 Nordeste 0 -- -- 66
2018-05-03 21:00:00 11.4 50 Nordeste 61 Nordeste 0 -- -- 65
2018-05-03 20:00:00 12 48 Nordeste 58 Nordeste 0 -- -- 63
2018-05-03 19:00:00 12.4 50 Nordeste 60 Nordeste 0 -- -- 61
2018-05-03 18:00:00 12.5 52 Nordeste 58 Nordeste 0 -- -- 60
2018-05-03 17:00:00 12.9 46 Nordeste 58 Nordeste 0 -- -- 60
2018-05-03 16:00:00 12.9 46 Nordeste 55 Nordeste 0 -- -- 61
2018-05-03 15:00:00 12.8 43 Nordeste 50 Nordeste 0 -- -- 62
2018-05-03 14:00:00 12.8 40 Nordeste 50 Nordeste 0 -- -- 61
2018-05-03 13:00:00 12.8 42 Nordeste 50 Nordeste 0 -- -- 64
2018-05-03 12:00:00 11.8 41 Nordeste 49 Nordeste 0 -- -- 66
2018-05-03 11:00:00 11.8 39 Nordeste 46 Nordeste 0 -- -- 65
2018-05-03 10:00:00 11.3 36 Nordeste 45 Nordeste 0 -- -- 69
2018-05-03 09:00:00 11 37 Nordeste 46 Nordeste 0 -- -- 72
2018-05-03 08:00:00 10.6 36 Nordeste 42 Nordeste 0 -- -- 72
2018-05-03 07:00:00 10.7 35 Norte 42 Nordeste 0 -- -- 72
2018-05-03 06:00:00 10.4 33 Nordeste 39 Nordeste 0 -- -- 71
2018-05-03 05:00:00 10.3 32 Nordeste 41 Nordeste 0 -- -- 71
2018-05-03 04:00:00 10.2 34 Nordeste 43 Nordeste 0 -- -- 73
2018-05-03 03:00:00 10.7 37 Nordeste 46 Nordeste 0 -- -- 76
2018-05-03 02:00:00 11.1 31 Nordeste 39 Nordeste 0 -- -- 82
2018-05-03 01:00:00 10.9 22 Nordeste 35 Nordeste 0 -- -- 86
2018-05-03 00:00:00 10.8 19 Nordeste 29 Nordeste 0 -- -- 86
2018-05-02 23:00:00 10.1 21 Nordeste 44 Nordeste 0.2 -- -- 87
2018-05-02 22:00:00 10.7 37 Nordeste 49 Nordeste 0.2 -- -- 87
2018-05-02 21:00:00 10.9 42 Nordeste 50 Nordeste 0.1 -- -- 87
2018-05-02 20:00:00 11.7 35 Nordeste 40 Nordeste 0.3 -- -- 87
2018-05-02 19:00:00 13.2 10 Oeste 28 Sudoeste 1 -- -- 87
2018-05-02 18:00:00 13.1 20 Sudoeste 31 Sudoeste 2.2 -- -- 86
2018-05-02 17:00:00 13 25 Sudoeste 35 Sudoeste 2.6 -- -- 86
2018-05-02 16:00:00 13 25 Sudoeste 36 Sudoeste 1.7 -- -- 86
2018-05-02 15:00:00 12.9 27 Sudoeste 38 Sudoeste 2.8 -- -- 86
2018-05-02 14:00:00 13 20 Sur 36 Sur 2.1 -- -- 85
2018-05-02 13:00:00 12.6 27 Sur 41 Sur 1 -- -- 85
2018-05-02 12:00:00 12.5 30 Sur 46 Sur 0.1 -- -- 85
2018-05-02 11:00:00 11.6 27 Sur 40 Sur 0.2 -- -- 85
2018-05-02 10:00:00 11.6 25 Sur 42 Sur 0.5 -- -- 85
2018-05-02 09:00:00 10.9 27 Sur 44 Sur 0.6 -- -- 85
2018-05-02 08:00:00 10.8 33 Sur 48 Sur 0.8 -- -- 85
2018-05-02 07:00:00 10.6 26 Sur 44 Sur 0.7 -- -- 85
2018-05-02 06:00:00 10.6 33 Sur 45 Sur 0.2 -- -- 84
2018-05-02 05:00:00 10.6 31 Sur 46 Sur 0.3 -- -- 83
2018-05-02 04:00:00 10.5 31 Sur 53 Sur 0.2 -- -- 84
2018-05-02 03:00:00 10.5 39 Sur 52 Sur 0.6 -- -- 83
2018-05-02 02:00:00 10.1 39 Sur 52 Sur 1.1 -- -- 81
2018-05-02 01:00:00 10.1 36 Sur 49 Sur 0.7 -- -- 79
2018-05-02 00:00:00 10.1 39 Sur 55 Sudoeste 0.6 -- -- 75
2018-05-01 23:00:00 10.6 41 Sudoeste 54 Sudoeste 0.2 -- -- 70
2018-05-01 22:00:00 10.8 33 Sudoeste 51 Sudoeste 0.2 -- -- 66
2018-05-01 21:00:00 11.3 39 Sudoeste 52 Sudoeste 0 -- -- 60
2018-05-01 20:00:00 12.3 37 Sudoeste 52 Sudoeste 0 -- -- 56
2018-05-01 19:00:00 12.3 38 Sudoeste 51 Sudoeste 0 -- -- 54
2018-05-01 18:00:00 12.6 34 Sudoeste 44 Sudoeste 0 -- -- 52
2018-05-01 17:00:00 12.9 33 Sudoeste 43 Sudoeste 0 -- -- 51
2018-05-01 16:00:00 13.8 29 Sudoeste 36 Sudoeste 0 -- -- 49
2018-05-01 15:00:00 13.6 29 Sudoeste 37 Sudoeste 0 -- -- 52
2018-05-01 14:00:00 13.1 27 Sudoeste 33 Sudoeste 0 -- -- 53
2018-05-01 13:00:00 13.8 25 Sudoeste 31 Sudoeste 0 -- -- 53
2018-05-01 12:00:00 13.1 21 Sudoeste 29 Sudoeste 0 -- -- 56
2018-05-01 11:00:00 12.2 15 Sudoeste 23 Sudoeste 0 -- -- 58
2018-05-01 10:00:00 10.8 9 Sur 14 Sur 0 -- -- 59
2018-05-01 09:00:00 9.2 10 Sudeste 13 Sudeste 0 -- -- 61
2018-05-01 08:00:00 7.9 7 Sur 13 Sudeste 0 -- -- 62
2018-05-01 07:00:00 7 4 Sur 9 Sudeste 0 -- -- 62
2018-05-01 06:00:00 7.7 3 Sudeste 10 Sudeste 0 -- -- 62
2018-05-01 05:00:00 7.6 6 Sudeste 12 Este 0 -- -- 61
2018-05-01 04:00:00 7.1 13 Sudeste 17 Sudeste 0 -- -- 62
2018-05-01 03:00:00 7.6 15 Este 23 Este 0 -- -- 60
2018-05-01 02:00:00 8.3 14 Este 28 Nordeste 0 -- -- 59
2018-05-01 01:00:00 10.1 19 Norte 27 Norte 0 -- -- 60
2018-05-01 00:00:00 10.1 21 Norte 27 Norte 0 -- -- 58
2018-04-30 23:00:00 10.2 22 Norte 28 Norte 0 -- -- 57
2018-04-30 22:00:00 10.5 24 Norte 33 Norte 0 -- -- 58
2018-04-30 21:00:00 11.2 25 Norte 31 Norte 0 -- -- 55
2018-04-30 20:00:00 11.4 24 Norte 31 Nordeste 0 -- -- 54
2018-04-30 19:00:00 12.3 26 Norte 32 Nordeste 0 -- -- 53
2018-04-30 18:00:00 12.8 24 Norte 32 Nordeste 0 -- -- 53
2018-04-30 17:00:00 13 24 Norte 31 Norte 0 -- -- 54
2018-04-30 16:00:00 13.4 26 Nordeste 31 Norte 0 -- -- 57
2018-04-30 15:00:00 12.6 17 Norte 61 Norte 0 -- -- 61
2018-04-30 14:00:00 12.9 27 Nordeste 41 Nordeste 0 -- -- 63
2018-04-30 13:00:00 12.6 31 Nordeste 37 Nordeste 0 -- -- 70
2018-04-30 12:00:00 12.4 15 Nordeste 22 Nordeste 0 -- -- 75
2018-04-30 11:00:00 9.9 13 Nordeste 29 Nordeste 0 -- -- 80
2018-04-30 10:00:00 9.6 6 Este 10 Este 0 -- -- 83
2018-04-30 09:00:00 7.9 4 Este 11 Sudeste 0 -- -- 83
2018-04-30 08:00:00 7.7 8 Sudeste 13 Sudeste 0 -- -- 83
2018-04-30 07:00:00 7.8 3 Sudeste 12 Sudeste 0.1 -- -- 83
2018-04-30 06:00:00 8.2 0 Calma 18 Sudeste 0.5 -- -- 83
2018-04-30 05:00:00 7.9 10 Sudeste 13 Este 0 -- -- 83
2018-04-30 04:00:00 8.3 10 Sudeste 13 Sudeste 0 -- -- 82
2018-04-30 03:00:00 8.5 9 Sudeste 19 Sur 0 -- -- 81
2018-04-30 02:00:00 8.5 14 Sur 23 Sudeste 0 -- -- 80
2018-04-30 01:00:00 8.3 18 Sur 31 Sudoeste 0 -- -- 80
2018-04-30 00:00:00 8.7 27 Sudoeste 41 Sudoeste 0 -- -- 78
2018-04-29 23:00:00 8.5 25 Sudoeste 39 Sudoeste 0.5 -- -- 77
2018-04-29 22:00:00 8.6 21 Sur 39 Sudoeste 0.1 -- -- 73
2018-04-29 21:00:00 8.9 22 Sudoeste 40 Sudoeste 0.9 -- -- 69
2018-04-29 20:00:00 10.8 25 Oeste 39 Sudoeste 0 -- -- 67
2018-04-29 19:00:00 11.1 25 Oeste 33 Oeste 0 -- -- 65
2018-04-29 18:00:00 11 24 Oeste 37 Oeste 0 -- -- 66
2018-04-29 17:00:00 10.7 31 Oeste 42 Oeste 0 -- -- 71
2018-04-29 16:00:00 10.5 33 Oeste 44 Oeste 0 -- -- 72
2018-04-29 15:00:00 11.4 29 Oeste 41 Oeste 0 -- -- 76
2018-04-29 14:00:00 9.7 24 Oeste 43 Oeste 1.9 -- -- 81
2018-04-29 13:00:00 8.6 18 Oeste 36 Oeste 1.4 -- -- 80
2018-04-29 12:00:00 8.7 14 Oeste 23 Oeste 1.5 -- -- 80
2018-04-29 11:00:00 9.2 17 Oeste 27 Oeste 0.2 -- -- 78
2018-04-29 10:00:00 9 21 Noroeste 32 Oeste 0 -- -- 80
2018-04-29 09:00:00 8.7 22 Noroeste 31 Noroeste 0 -- -- 82
2018-04-29 08:00:00 8.4 18 Oeste 36 Oeste 1.4 -- -- 82
2018-04-29 07:00:00 8.3 18 Sudoeste 34 Oeste 1.6 -- -- 82
2018-04-29 06:00:00 8.7 10 Sur 17 Sur 0 -- -- 81
2018-04-29 05:00:00 8.9 8 Sur 23 Sur 0 -- -- 81
2018-04-29 04:00:00 8.7 13 Sur 17 Sur 0 -- -- 80
2018-04-29 03:00:00 8.5 10 Sur 15 Sur 0.6 -- -- 80
2018-04-29 02:00:00 8.8 11 Sur 13 Sur 0 -- -- 79
2018-04-29 01:00:00 8.5 8 Sudeste 14 Sudeste 0 -- -- 79
2018-04-29 00:00:00 8.9 10 Sur 12 Sur 0.3 -- -- 76
2018-04-28 23:00:00 9 7 Sur 15 Sudoeste 1.3 -- -- 74
2018-04-28 22:00:00 9.5 8 Sudoeste 11 Sudoeste 0.2 -- -- 68
2018-04-28 21:00:00 10.3 9 Sudoeste 19 Sudoeste 0 -- -- 64
2018-04-28 20:00:00 10.8 16 Sudoeste 26 Sudoeste 0 -- -- 64
2018-04-28 19:00:00 11.9 20 Sudoeste 27 Sudoeste 0 -- -- 61
2018-04-28 18:00:00 12 20 Sudoeste 33 Sudoeste 0 -- -- 61
2018-04-28 17:00:00 13.5 26 Sudoeste 34 Sudoeste 0 -- -- 61
2018-04-28 16:00:00 12.2 21 Sudoeste 29 Sudoeste 0 -- -- 62
2018-04-28 15:00:00 12.2 22 Sudoeste 29 Sudoeste 0 -- -- 60
2018-04-28 14:00:00 13.5 19 Sudoeste 24 Sudoeste 0 -- -- 60
2018-04-28 13:00:00 13.9 13 Sudoeste 19 Sudoeste 0 -- -- 63
2018-04-28 12:00:00 11.9 11 Sudoeste 15 Sudoeste 0 -- -- 64
2018-04-28 11:00:00 11.6 6 Sudeste 17 Sur 0 -- -- 69
2018-04-28 10:00:00 9.2 13 Sudeste 18 Sudeste 0.4 -- -- 74
2018-04-28 09:00:00 8.4 13 Sudeste 17 Sudeste 0.2 -- -- 75
2018-04-28 08:00:00 8.3 9 Este 11 Este 1.5 -- -- 75
2018-04-28 07:00:00 8.2 4 Nordeste 15 Sudeste 0.3 -- -- 72
2018-04-28 06:00:00 8.3 10 Sudeste 18 Sudeste 1.1 -- -- 70
2018-04-28 05:00:00 8.3 13 Sudeste 15 Sudeste 0 -- -- 67
2018-04-28 04:00:00 8.5 12 Sudeste 15 Sudeste 0 -- -- 66
2018-04-28 03:00:00 8.9 8 Sudeste 12 Sudeste 0 -- -- 63
2018-04-28 02:00:00 9.9 4 Sudoeste 10 Oeste 0 -- -- 61
2018-04-28 01:00:00 9.8 6 Oeste 9 Noroeste 0 -- -- 60
2018-04-28 00:00:00 9.9 7 Noroeste 14 Oeste 0 -- -- 58